Time;durP1;ratioP1;P1;durP2;ratioP2;P2;SDS_P1;SDS_P2;PMS_P1;PMS_P2;Temp;Humidity;BMP_temperature;BMP_pressure;BME280_temperature;BME280_humidity;BME280_pressure;Samples;Min_cycle;Max_cycle;Signal;HPM_P1;HPM_P2
2022/02/16 00:01:29;;;;;;;1999.90;999.90;;;8.80;99.90;;;;;;5015836;28;20295;-74
2022/02/16 00:03:54;;;;;;;1999.90;999.90;;;8.70;99.90;;;;;;5015903;28;20219;-75
2022/02/16 00:06:20;;;;;;;1999.90;999.90;;;8.80;99.90;;;;;;5015939;28;20316;-75
2022/02/16 00:08:46;;;;;;;1999.90;999.90;;;8.70;99.90;;;;;;5015442;28;20230;-75
2022/02/16 00:11:11;;;;;;;1999.90;999.90;;;8.70;99.90;;;;;;5015596;28;20170;-74
2022/02/16 00:13:37;;;;;;;1999.90;999.90;;;8.70;99.90;;;;;;5015303;28;20510;-75
2022/02/16 00:16:08;;;;;;;1999.90;999.90;;;8.70;99.90;;;;;;5015074;28;20197;-74
2022/02/16 00:18:38;;;;;;;1999.90;999.90;;;8.70;99.90;;;;;;5015321;28;20165;-75
2022/02/16 00:21:05;;;;;;;1999.90;999.90;;;8.70;99.90;;;;;;5015213;28;20522;-74
2022/02/16 00:23:31;;;;;;;1999.90;999.90;;;8.70;99.90;;;;;;5015193;28;20408;-73
2022/02/16 00:25:59;;;;;;;1999.90;999.90;;;8.80;99.90;;;;;;5015015;28;20429;-73
2022/02/16 00:28:26;;;;;;;1999.90;999.90;;;8.70;99.90;;;;;;5015019;28;20165;-74
2022/02/16 00:30:52;;;;;;;1999.90;999.90;;;8.70;99.90;;;;;;5015004;28;20410;-73
2022/02/16 00:33:17;;;;;;;1999.90;999.90;;;8.60;99.90;;;;;;5014965;28;20519;-73
2022/02/16 00:35:43;;;;;;;1999.90;999.90;;;8.70;99.90;;;;;;5014557;28;20526;-74
2022/02/16 00:38:08;;;;;;;1999.90;999.90;;;8.70;99.90;;;;;;5015285;28;20239;-73
2022/02/16 00:40:34;;;;;;;1999.90;999.90;;;8.60;99.90;;;;;;5014803;28;20199;-73
2022/02/16 00:42:59;;;;;;;1999.90;999.90;;;8.60;99.90;;;;;;5014708;28;20172;-73
2022/02/16 00:45:25;;;;;;;1999.90;999.90;;;8.60;99.90;;;;;;5014780;28;20272;-73
2022/02/16 00:47:51;;;;;;;1999.90;999.90;;;8.70;99.90;;;;;;5014735;28;20252;-73
2022/02/16 00:50:17;;;;;;;1999.90;999.90;;;8.70;99.90;;;;;;5014454;28;20562;-73
2022/02/16 00:52:43;;;;;;;1999.90;999.90;;;8.70;99.90;;;;;;5014766;28;20442;-74
2022/02/16 00:55:10;;;;;;;1999.90;999.90;;;8.70;99.90;;;;;;5014481;28;20176;-73
2022/02/16 00:57:36;;;;;;;1999.90;999.90;;;8.70;99.90;;;;;;5014475;28;20623;-74
2022/02/16 01:00:04;;;;;;;1999.90;999.90;;;8.70;99.90;;;;;;5014488;28;20441;-74
2022/02/16 01:02:29;;;;;;;1999.90;999.90;;;8.70;99.90;;;;;;5014314;28;20201;-74
2022/02/16 01:04:55;;;;;;;1999.90;999.90;;;8.70;99.90;;;;;;5014170;28;20885;-74
2022/02/16 01:07:21;;;;;;;1999.90;999.90;;;8.70;99.90;;;;;;5014500;28;20170;-74
2022/02/16 01:09:46;;;;;;;1999.90;999.90;;;8.80;99.90;;;;;;5014318;28;20695;-73
2022/02/16 01:12:12;;;;;;;1999.90;999.90;;;8.80;99.90;;;;;;5014165;28;20178;-74
2022/02/16 01:14:39;;;;;;;1999.90;999.90;;;8.70;99.90;;;;;;5014172;28;20712;-74
2022/02/16 01:17:05;;;;;;;1999.90;999.90;;;8.80;99.90;;;;;;5014045;28;20200;-75
2022/02/16 01:19:31;;;;;;;1999.90;999.90;;;8.80;99.90;;;;;;5013933;28;20406;-75
2022/02/16 01:21:56;;;;;;;1999.90;999.90;;;8.80;99.90;;;;;;5013821;28;20240;-75
2022/02/16 01:24:22;;;;;;;1999.90;999.90;;;8.80;99.90;;;;;;5013699;28;20178;-76
2022/02/16 01:26:48;;;;;;;1999.90;999.90;;;8.80;99.90;;;;;;5013693;28;20247;-75
2022/02/16 01:29:14;;;;;;;1999.90;999.90;;;8.90;99.90;;;;;;5013785;28;20177;-75
2022/02/16 01:31:39;;;;;;;1999.90;999.90;;;9.00;99.90;;;;;;5013815;28;20177;-75
2022/02/16 01:34:05;;;;;;;1999.90;999.90;;;8.90;99.90;;;;;;5013342;28;20417;-75
2022/02/16 01:36:30;;;;;;;1999.90;999.90;;;9.00;99.90;;;;;;5013514;28;20214;-75
2022/02/16 01:38:56;;;;;;;1999.90;999.90;;;9.00;99.90;;;;;;5013561;28;20261;-75
2022/02/16 01:41:22;;;;;;;1999.90;999.90;;;9.00;99.90;;;;;;5013512;28;20684;-75
2022/02/16 01:43:52;;;;;;;1999.90;999.90;;;9.00;99.90;;;;;;5013500;28;20170;-75
2022/02/16 01:46:19;;;;;;;1999.90;999.90;;;9.10;99.90;;;;;;5013194;28;20560;-75
2022/02/16 01:48:45;;;;;;;1999.90;999.90;;;9.10;99.90;;;;;;5013333;28;20408;-76
2022/02/16 01:51:11;;;;;;;1999.90;999.90;;;9.10;99.90;;;;;;5013409;28;20412;-75
2022/02/16 01:53:37;;;;;;;1999.90;999.90;;;9.10;99.90;;;;;;5013492;28;20818;-75
2022/02/16 01:56:03;;;;;;;1999.90;999.90;;;9.10;99.90;;;;;;5013007;28;21018;-75
2022/02/16 01:58:29;;;;;;;1999.90;999.90;;;9.10;99.90;;;;;;5013249;28;20406;-75
2022/02/16 02:00:55;;;;;;;1999.90;999.90;;;9.10;99.90;;;;;;5013129;28;20446;-75
2022/02/16 02:03:21;;;;;;;1999.90;999.90;;;9.10;99.90;;;;;;5012493;28;20408;-74
2022/02/16 02:05:50;;;;;;;1999.90;999.90;;;9.10;99.90;;;;;;5012757;28;20838;-75
2022/02/16 02:08:21;;;;;;;1999.90;999.90;;;9.10;99.90;;;;;;5013108;28;20166;-75
2022/02/16 02:10:47;;;;;;;1999.90;999.90;;;9.10;99.90;;;;;;5013072;28;20409;-75
2022/02/16 02:13:15;;;;;;;1999.90;999.90;;;9.10;99.90;;;;;;5013023;28;20444;-75
2022/02/16 02:15:41;;;;;;;1999.90;999.90;;;9.10;99.90;;;;;;5012561;28;20516;-75
2022/02/16 02:18:07;;;;;;;1999.90;999.90;;;9.00;99.90;;;;;;5012907;28;20412;-75
2022/02/16 02:20:33;;;;;;;1999.90;999.90;;;9.10;99.90;;;;;;5012863;28;20501;-75
2022/02/16 02:22:59;;;;;;;1999.90;999.90;;;9.00;99.90;;;;;;5012878;28;20439;-75
2022/02/16 02:25:25;;;;;;;1999.90;999.90;;;9.00;99.90;;;;;;5012432;28;20187;-74
2022/02/16 02:27:51;;;;;;;1999.90;999.90;;;9.00;99.90;;;;;;5012858;28;20176;-73
2022/02/16 02:30:17;;;;;;;1999.90;999.90;;;9.00;99.90;;;;;;5012877;28;20492;-73
2022/02/16 02:32:45;;;;;;;1999.90;999.90;;;9.00;99.90;;;;;;5012787;28;20445;-73
2022/02/16 02:35:14;;;;;;;1999.90;999.90;;;9.00;99.90;;;;;;5012553;28;20477;-74
2022/02/16 02:37:40;;;;;;;1999.90;999.90;;;9.00;99.90;;;;;;5013212;28;20436;-74
2022/02/16 02:40:07;;;;;;;1999.90;999.90;;;9.10;99.90;;;;;;5013052;28;20426;-74
2022/02/16 02:42:40;;;;;;;1999.90;999.90;;;9.10;99.90;;;;;;5012878;28;20831;-73
2022/02/16 02:45:08;;;;;;;1999.90;999.90;;;9.10;99.90;;;;;;5012404;28;20517;-73
2022/02/16 02:47:34;;;;;;;1999.90;999.90;;;9.10;99.90;;;;;;5012751;28;20408;-73
2022/02/16 02:49:59;;;;;;;1999.90;999.90;;;9.20;99.90;;;;;;5012707;28;20770;-73
2022/02/16 02:52:25;;;;;;;1999.90;999.90;;;9.10;99.90;;;;;;5012527;28;20408;-74
2022/02/16 02:54:51;;;;;;;1999.90;999.90;;;9.20;99.90;;;;;;5012404;28;20177;-74
2022/02/16 02:57:17;;;;;;;1999.90;999.90;;;9.20;99.90;;;;;;5012606;28;20772;-74
2022/02/16 02:59:42;;;;;;;1999.90;999.90;;;9.20;99.90;;;;;;5012596;28;20253;-73
2022/02/16 03:02:08;;;;;;;1999.90;999.90;;;9.30;99.90;;;;;;5012566;28;20203;-74
2022/02/16 03:04:33;;;;;;;1999.90;999.90;;;9.30;99.90;;;;;;5012360;28;20200;-74
2022/02/16 03:06:59;;;;;;;1999.90;999.90;;;9.30;99.90;;;;;;5012275;28;20185;-74
2022/02/16 03:09:25;;;;;;;1999.90;999.90;;;9.30;99.90;;;;;;5012335;28;20182;-74
2022/02/16 03:11:50;;;;;;;1999.90;999.90;;;9.30;99.90;;;;;;5012252;28;20193;-74
2022/02/16 03:14:16;;;;;;;1999.90;999.90;;;9.40;99.90;;;;;;5014852;28;20264;-74
2022/02/16 03:16:41;;;;;;;1999.90;999.90;;;9.40;99.90;;;;;;5016276;28;20275;-74
2022/02/16 03:19:07;;;;;;;1999.90;999.90;;;9.30;99.90;;;;;;5016257;28;20218;-74
2022/02/16 03:21:33;;;;;;;1999.90;999.90;;;9.50;99.90;;;;;;5016218;28;20248;-74
2022/02/16 03:23:59;;;;;;;1999.90;999.90;;;9.50;99.90;;;;;;5016000;28;20413;-74
2022/02/16 03:26:24;;;;;;;1999.90;999.90;;;9.50;99.90;;;;;;5016039;28;20189;-74
2022/02/16 03:28:50;;;;;;;1999.90;999.90;;;9.50;99.90;;;;;;5016051;28;20539;-74
2022/02/16 03:31:15;;;;;;;1999.90;999.90;;;9.50;99.90;;;;;;5016066;28;20216;-74
2022/02/16 03:33:41;;;;;;;1999.90;999.90;;;9.50;99.90;;;;;;5016026;28;20214;-74
2022/02/16 03:36:07;;;;;;;1999.90;999.90;;;9.50;99.90;;;;;;5015479;28;20228;-73
2022/02/16 03:38:32;;;;;;;1999.90;999.90;;;9.60;99.90;;;;;;5015835;28;20585;-74
2022/02/16 03:40:58;;;;;;;1999.90;999.90;;;9.60;99.90;;;;;;5015792;28;20203;-74
2022/02/16 03:43:24;;;;;;;1999.90;999.90;;;9.60;99.90;;;;;;5015770;28;20179;-74
2022/02/16 03:45:50;;;;;;;1999.90;999.90;;;9.70;99.90;;;;;;5015502;28;20760;-73
2022/02/16 03:48:15;;;;;;;1999.90;999.90;;;9.70;99.90;;;;;;5015777;28;20955;-74
2022/02/16 03:50:41;;;;;;;1999.90;999.90;;;9.70;99.90;;;;;;5015752;28;20213;-74
2022/02/16 03:53:06;;;;;;;1999.90;999.90;;;9.80;99.90;;;;;;5015637;28;20606;-73
2022/02/16 03:55:32;;;;;;;1999.90;999.90;;;9.70;99.90;;;;;;5013988;28;20210;-74
2022/02/16 03:57:58;;;;;;;1999.90;999.90;;;9.70;99.90;;;;;;5015652;28;20254;-73
2022/02/16 04:00:23;;;;;;;1999.90;999.90;;;9.80;99.90;;;;;;5015590;28;20691;-73
2022/02/16 04:02:49;;;;;;;1999.90;999.90;;;9.80;99.90;;;;;;5015443;28;20222;-73
2022/02/16 04:05:14;;;;;;;1999.90;999.90;;;9.80;99.90;;;;;;5015199;28;20202;-73
2022/02/16 04:07:40;;;;;;;1999.90;999.90;;;9.90;99.90;;;;;;5015509;28;20186;-73
2022/02/16 04:10:07;;;;;;;1999.90;999.90;;;9.90;99.90;;;;;;5015304;28;20181;-73
2022/02/16 04:12:33;;;;;;;1999.90;999.90;;;9.90;99.90;;;;;;5015259;28;20181;-73
2022/02/16 04:14:58;;;;;;;1999.90;999.90;;;9.90;99.90;;;;;;5014908;28;20445;-74
2022/02/16 04:17:24;;;;;;;1999.90;999.90;;;10.00;99.90;;;;;;5015340;28;20814;-73
2022/02/16 04:19:50;;;;;;;1999.90;999.90;;;9.90;99.90;;;;;;5015158;28;20174;-73
2022/02/16 04:22:17;;;;;;;1999.90;999.90;;;9.90;99.90;;;;;;5015022;28;20253;-73
2022/02/16 04:24:43;;;;;;;1999.90;999.90;;;9.90;99.90;;;;;;5014298;28;20172;-72
2022/02/16 04:27:09;;;;;;;1999.90;999.90;;;9.90;99.90;;;;;;5014902;28;20519;-73
2022/02/16 04:29:35;;;;;;;1999.90;999.90;;;9.90;99.90;;;;;;5015198;28;20439;-73
2022/02/16 04:32:00;;;;;;;1999.90;999.90;;;9.90;99.90;;;;;;5014945;28;20178;-73
2022/02/16 04:34:26;;;;;;;1999.90;999.90;;;9.90;99.90;;;;;;5014653;28;20176;-73
2022/02/16 04:36:51;;;;;;;1999.90;999.90;;;9.90;99.90;;;;;;4995041;23;20315;-73
2022/02/16 04:39:18;;;;;;;1999.90;999.90;;;9.90;99.90;;;;;;4956398;29;20232;-73
2022/02/16 04:41:43;;;;;;;1999.90;999.90;;;9.90;99.90;;;;;;4956391;29;20191;-73
2022/02/16 04:44:09;;;;;;;1999.90;999.90;;;9.80;99.90;;;;;;4956075;29;20441;-73
2022/02/16 04:46:35;;;;;;;1999.90;999.90;;;9.70;99.90;;;;;;4956535;28;20198;-73
2022/02/16 04:49:00;;;;;;;1999.90;999.90;;;9.80;99.90;;;;;;4956335;29;20168;-73
2022/02/16 04:51:26;;;;;;;1999.90;999.90;;;9.70;99.90;;;;;;4956208;29;20675;-73
2022/02/16 04:53:52;;;;;;;1999.90;999.90;;;9.70;99.90;;;;;;4956109;29;20170;-73
2022/02/16 04:56:18;;;;;;;1999.90;999.90;;;9.70;99.90;;;;;;4955746;28;20623;-73
2022/02/16 04:58:44;;;;;;;1999.90;999.90;;;9.70;99.90;;;;;;4956083;29;20174;-73
2022/02/16 05:01:09;;;;;;;1999.90;999.90;;;9.60;99.90;;;;;;4955969;29;20464;-73
2022/02/16 05:03:35;;;;;;;1999.90;999.90;;;9.70;99.90;;;;;;4956075;29;20573;-73
2022/02/16 05:06:01;;;;;;;1999.90;999.90;;;9.60;99.90;;;;;;4955617;28;20232;-73
2022/02/16 05:08:27;;;;;;;1999.90;999.90;;;9.60;99.90;;;;;;4955892;29;20235;-73
2022/02/16 05:10:52;;;;;;;1999.90;999.90;;;9.70;99.90;;;;;;4955805;29;20901;-73
2022/02/16 05:13:18;;;;;;;1999.90;999.90;;;9.60;99.90;;;;;;4954570;29;20177;-73
2022/02/16 05:15:43;;;;;;;1999.90;999.90;;;9.70;99.90;;;;;;4955444;28;20193;-73
2022/02/16 05:18:09;;;;;;;1999.90;999.90;;;9.70;99.90;;;;;;4955728;29;20246;-73
2022/02/16 05:20:35;;;;;;;1999.90;999.90;;;9.70;99.90;;;;;;4955599;29;20570;-73
2022/02/16 05:23:04;;;;;;;1999.90;999.90;;;9.70;99.90;;;;;;4955614;29;20166;-73
2022/02/16 05:25:30;;;;;;;1999.90;999.90;;;9.70;99.90;;;;;;4955245;28;20171;-73
2022/02/16 05:27:56;;;;;;;1999.90;999.90;;;9.80;99.90;;;;;;4955563;29;20403;-73
2022/02/16 05:30:21;;;;;;;1999.90;999.90;;;9.80;99.90;;;;;;4955502;29;20916;-73
2022/02/16 05:32:47;;;;;;;1999.90;999.90;;;9.80;99.90;;;;;;4955447;29;20176;-73
2022/02/16 05:35:12;;;;;;;1999.90;999.90;;;9.80;99.90;;;;;;4955108;29;20179;-73
2022/02/16 05:37:39;;;;;;;1999.90;999.90;;;9.90;99.90;;;;;;4954249;28;20208;-73
2022/02/16 05:40:06;;;;;;;1999.90;999.90;;;9.90;99.90;;;;;;4955215;29;20164;-73
2022/02/16 05:42:34;;;;;;;1999.90;999.90;;;9.90;99.90;;;;;;4955211;29;20979;-73
2022/02/16 05:44:59;;;;;;;1999.90;999.90;;;9.90;99.90;;;;;;4954922;29;20775;-73
2022/02/16 05:47:25;;;;;;;1999.90;999.90;;;9.90;99.90;;;;;;4955065;28;20463;-73
2022/02/16 05:49:50;;;;;;;1999.90;999.90;;;9.90;99.90;;;;;;4955126;29;20600;-73
2022/02/16 05:52:16;;;;;;;1999.90;999.90;;;9.90;99.90;;;;;;4955061;29;20227;-73
2022/02/16 05:54:42;;;;;;;1999.90;999.90;;;10.00;99.90;;;;;;4953490;29;20189;-73
2022/02/16 05:57:07;;;;;;;1999.90;999.90;;;10.00;99.90;;;;;;4954939;28;20191;-73
2022/02/16 05:59:34;;;;;;;1999.90;999.90;;;10.00;99.90;;;;;;4954915;29;20268;-73
2022/02/16 06:02:03;;;;;;;1999.90;999.90;;;10.00;99.90;;;;;;4954798;29;20571;-73
2022/02/16 06:04:30;;;;;;;1999.90;999.90;;;10.00;99.90;;;;;;4954597;29;20415;-73
2022/02/16 06:06:56;;;;;;;1999.90;999.90;;;10.10;99.90;;;;;;4954674;28;20432;-73
2022/02/16 06:09:21;;;;;;;1999.90;999.90;;;10.00;99.90;;;;;;4954748;29;20397;-73
2022/02/16 06:11:47;;;;;;;1999.90;999.90;;;10.10;99.90;;;;;;4954770;29;20177;-73
2022/02/16 06:14:12;;;;;;;1999.90;999.90;;;10.20;99.90;;;;;;4954431;29;20612;-73
2022/02/16 06:16:38;;;;;;;1999.90;999.90;;;10.20;99.90;;;;;;4954629;28;20193;-73
2022/02/16 06:19:04;;;;;;;1999.90;999.90;;;10.20;99.90;;;;;;4954768;29;20763;-73
2022/02/16 06:21:29;;;;;;;1999.90;999.90;;;10.20;99.90;;;;;;4954484;29;20660;-73
2022/02/16 06:23:55;;;;;;;1999.90;999.90;;;10.30;99.90;;;;;;4954605;29;20229;-73
2022/02/16 06:26:20;;;;;;;1999.90;999.90;;;10.30;99.90;;;;;;4954243;28;20599;-73
2022/02/16 06:28:46;;;;;;;1999.90;999.90;;;10.30;99.90;;;;;;4953208;29;20184;-73
2022/02/16 06:31:12;;;;;;;1999.90;999.90;;;10.40;99.90;;;;;;4954475;29;20177;-73
2022/02/16 06:33:37;;;;;;;1999.90;999.90;;;10.40;99.90;;;;;;4954461;29;20169;-73
2022/02/16 06:36:03;;;;;;;1999.90;999.90;;;10.50;99.90;;;;;;4953905;28;20269;-73
2022/02/16 06:38:29;;;;;;;1999.90;999.90;;;10.40;99.90;;;;;;4954276;29;20189;-73
2022/02/16 06:40:55;;;;;;;1999.90;999.90;;;10.50;99.90;;;;;;4954221;29;20701;-73
2022/02/16 06:43:20;;;;;;;1999.90;999.90;;;10.50;99.90;;;;;;4954236;29;20464;-73
2022/02/16 06:45:46;;;;;;;1999.90;999.90;;;10.50;99.90;;;;;;4953930;28;20484;-73
2022/02/16 06:48:12;;;;;;;1999.90;999.90;;;10.50;99.90;;;;;;4953932;28;20170;-73
2022/02/16 06:50:37;;;;;;;1999.90;999.90;;;10.50;99.90;;;;;;4954122;29;20173;-73
2022/02/16 06:53:03;;;;;;;1999.90;999.90;;;10.50;99.90;;;;;;4954090;29;20172;-73
2022/02/16 06:55:29;;;;;;;1999.90;999.90;;;10.60;99.90;;;;;;4953808;28;20574;-73
2022/02/16 06:57:55;;;;;;;1999.90;999.90;;;10.60;99.90;;;;;;4954120;29;20252;-73
2022/02/16 07:00:21;;;;;;;1999.90;999.90;;;10.60;99.90;;;;;;4954337;29;20669;-73
2022/02/16 07:02:47;;;;;;;1999.90;999.90;;;10.50;99.90;;;;;;4954038;29;20489;-73
2022/02/16 07:05:14;;;;;;;1999.90;999.90;;;10.60;99.90;;;;;;4953663;29;20181;-73
2022/02/16 07:07:40;;;;;;;1999.90;999.90;;;10.60;99.90;;;;;;4953880;28;20446;-73
2022/02/16 07:10:07;;;;;;;1999.90;999.90;;;10.60;99.90;;;;;;4953966;29;20410;-73
2022/02/16 07:12:33;;;;;;;1999.90;999.90;;;10.60;99.90;;;;;;4957333;29;20412;-73
2022/02/16 07:14:59;;;;;;;1999.90;999.90;;;10.50;99.90;;;;;;4956734;29;20439;-74
2022/02/16 07:17:25;;;;;;;1999.90;999.90;;;10.50;99.90;;;;;;4963086;28;20229;-74
2022/02/16 07:19:50;;;;;;;1999.90;999.90;;;10.40;99.90;;;;;;4962089;29;20174;-74
2022/02/16 07:22:16;;;;;;;1999.90;999.90;;;10.50;99.90;;;;;;4961265;29;20479;-74
2022/02/16 07:24:42;;;;;;;1999.90;999.90;;;10.50;99.90;;;;;;4958566;29;20227;-74
2022/02/16 07:27:08;;;;;;;1999.90;999.90;;;10.60;99.90;;;;;;4957584;28;20241;-74
2022/02/16 07:29:34;;;;;;;1999.90;999.90;;;10.60;99.90;;;;;;4956917;29;20414;-75
2022/02/16 07:31:59;;;;;;;1999.90;999.90;;;10.70;99.90;;;;;;4959605;29;20213;-74
2022/02/16 07:34:27;;;;;;;1999.90;999.90;;;10.80;99.90;;;;;;4958629;29;20509;-74
2022/02/16 07:36:53;;;;;;;1999.90;999.90;;;10.80;99.90;;;;;;4959261;28;20686;-75
2022/02/16 07:39:19;;;;;;;1999.90;999.90;;;10.90;99.90;;;;;;4961359;29;20418;-75
2022/02/16 07:41:45;;;;;;;1999.90;999.90;;;10.90;99.90;;;;;;4959590;29;20978;-74
2022/02/16 07:44:11;;;;;;;1999.90;999.90;;;11.00;99.90;;;;;;4956787;29;20510;-74
2022/02/16 07:46:36;;;;;;;1999.90;999.90;;;11.00;99.90;;;;;;4956263;28;20197;-74
2022/02/16 07:49:02;;;;;;;1999.90;999.90;;;11.10;99.90;;;;;;4953745;29;20170;-74
2022/02/16 07:51:28;;;;;;;1999.90;999.90;;;11.10;99.90;;;;;;4954027;29;20204;-74
2022/02/16 07:53:54;;;;;;;1999.90;999.90;;;11.00;99.90;;;;;;4955165;29;20428;-74
2022/02/16 07:56:20;;;;;;;1999.90;999.90;;;11.00;99.90;;;;;;4955105;28;20190;-73
2022/02/16 07:58:46;;;;;;;1999.90;999.90;;;11.10;99.90;;;;;;4953568;29;20815;-73
2022/02/16 08:01:11;;;;;;;1999.90;999.90;;;11.10;99.90;;;;;;4955742;28;20544;-73
2022/02/16 08:03:37;;;;;;;1999.90;999.90;;;11.20;99.90;;;;;;4957051;29;20167;-73
2022/02/16 08:06:03;;;;;;;1999.90;999.90;;;11.20;99.90;;;;;;4956690;28;20198;-73
2022/02/16 08:08:30;;;;;;;1999.90;999.90;;;11.30;99.90;;;;;;4957011;29;20237;-73
2022/02/16 08:10:57;;;;;;;1999.90;999.90;;;11.30;99.90;;;;;;4956944;29;20418;-73
2022/02/16 08:13:22;;;;;;;1999.90;999.90;;;11.30;99.90;;;;;;4956969;29;20440;-73
2022/02/16 08:15:48;;;;;;;1999.90;999.90;;;11.30;99.90;;;;;;4956509;28;20429;-73
2022/02/16 08:18:13;;;;;;;1999.90;999.90;;;11.40;99.90;;;;;;4955484;29;20213;-73
2022/02/16 08:20:41;;;;;;;1999.90;999.90;;;11.30;99.90;;;;;;4956748;29;20200;-73
2022/02/16 08:23:09;;;;;;;1999.90;999.90;;;11.30;99.90;;;;;;4956822;29;20179;-73
2022/02/16 08:25:36;;;;;;;1999.90;999.90;;;11.10;99.90;;;;;;4956387;28;20413;-74
2022/02/16 08:28:01;;;;;;;1999.90;999.90;;;11.00;99.90;;;;;;4953290;29;20410;-74
2022/02/16 08:30:28;;;;;;;1999.90;999.90;;;10.90;99.90;;;;;;4956361;29;20775;-74
2022/02/16 08:32:54;;;;;;;1999.90;999.90;;;10.80;99.90;;;;;;4955991;29;20428;-74
2022/02/16 08:35:20;;;;;;;1999.90;999.90;;;10.70;99.90;;;;;;4955401;28;20499;-74
2022/02/16 08:37:46;;;;;;;1999.90;999.90;;;10.70;99.90;;;;;;4955994;29;20437;-74
2022/02/16 08:40:12;;;;;;;1999.90;999.90;;;10.70;99.90;;;;;;4956233;29;20212;-74
2022/02/16 08:42:40;;;;;;;1999.90;999.90;;;10.80;99.90;;;;;;4955564;29;20209;-74
2022/02/16 08:45:06;;;;;;;1999.90;999.90;;;10.80;99.90;;;;;;4955671;29;20926;-74
2022/02/16 08:47:31;;;;;;;1999.90;999.90;;;10.90;99.90;;;;;;4955576;28;20462;-74
2022/02/16 08:49:57;;;;;;;1999.90;999.90;;;10.90;99.90;;;;;;4955450;29;20824;-74
2022/02/16 08:52:23;;;;;;;1999.90;999.90;;;11.00;99.90;;;;;;4956004;29;20179;-74
2022/02/16 08:54:48;;;;;;;1999.90;999.90;;;11.00;99.90;;;;;;4955386;29;20179;-74
2022/02/16 08:57:14;;;;;;;1999.90;999.90;;;11.10;99.90;;;;;;4955384;28;20593;-74
2022/02/16 08:59:39;;;;;;;1999.90;999.90;;;11.10;99.90;;;;;;4955835;29;20180;-74
2022/02/16 09:02:05;;;;;;;1999.90;999.90;;;11.20;99.90;;;;;;4955638;29;20201;-74
2022/02/16 09:04:31;;;;;;;1999.90;999.90;;;11.30;99.90;;;;;;4954894;29;20175;-74
2022/02/16 09:09:43;;;;;;;1999.90;999.90;;;11.40;99.90;;;;;;4955836;29;20200;-74
2022/02/16 09:12:09;;;;;;;1999.90;999.90;;;11.40;99.90;;;;;;4955104;28;20846;-74
2022/02/16 09:14:35;;;;;;;1999.90;999.90;;;11.50;99.90;;;;;;4954942;29;20773;-74
2022/02/16 09:17:02;;;;;;;1999.90;999.90;;;11.60;99.90;;;;;;4955190;28;20432;-73
2022/02/16 09:19:28;;;;;;;1999.90;999.90;;;11.60;99.90;;;;;;4955018;29;20413;-74
2022/02/16 09:21:54;;;;;;;1999.90;999.90;;;11.70;99.90;;;;;;4955333;29;20611;-74
2022/02/16 09:24:20;;;;;;;1999.90;999.90;;;11.70;99.90;;;;;;4954881;29;20222;-74
2022/02/16 09:26:50;;;;;;;1999.90;999.90;;;11.70;99.90;;;;;;4954937;28;20841;-74
2022/02/16 09:29:17;;;;;;;1999.90;999.90;;;11.70;99.90;;;;;;4955527;29;20421;-74
2022/02/16 09:31:43;;;;;;;1999.90;999.90;;;11.80;99.90;;;;;;4955545;29;20415;-75
2022/02/16 09:34:08;;;;;;;1999.90;999.90;;;11.80;99.90;;;;;;4954658;29;20410;-75
2022/02/16 09:36:35;;;;;;;1999.90;999.90;;;11.90;99.90;;;;;;4955183;28;20312;-75
2022/02/16 09:39:01;;;;;;;1999.90;999.90;;;12.00;99.90;;;;;;4955160;29;20174;-75
2022/02/16 09:41:27;;;;;;;1999.90;999.90;;;12.00;99.90;;;;;;4954854;29;20819;-76
2022/02/16 09:43:53;;;;;;;1999.90;999.90;;;12.00;99.90;;;;;;4955059;29;20414;-75
2022/02/16 09:46:19;;;;;;;1999.90;999.90;;;12.10;99.90;;;;;;4954685;28;20277;-75
2022/02/16 09:48:44;;;;;;;1999.90;999.90;;;12.10;99.90;;;;;;4951130;29;20517;-76
2022/02/16 09:51:10;;;;;;;1999.90;999.90;;;12.00;99.90;;;;;;4954629;28;20266;-75
2022/02/16 09:53:36;;;;;;;1999.90;999.90;;;12.10;99.90;;;;;;4953292;28;20670;-75
2022/02/16 09:56:03;;;;;;;1999.90;999.90;;;12.10;99.90;;;;;;4953907;29;20628;-75
2022/02/16 09:58:31;;;;;;;1999.90;999.90;;;12.10;99.90;;;;;;4953133;28;20518;-75
2022/02/16 10:01:03;;;;;;;1999.90;999.90;;;12.00;99.90;;;;;;4954201;28;20827;-75
2022/02/16 10:03:29;;;;;;;1999.90;999.90;;;12.10;99.90;;;;;;4953878;28;20456;-75
2022/02/16 10:05:54;;;;;;;1999.90;999.90;;;12.20;99.90;;;;;;4953477;28;20823;-75
2022/02/16 10:08:46;;;;;;;1999.90;999.90;;;12.30;99.90;;;;;;4954217;29;20604;-73
2022/02/16 10:11:14;;;;;;;1999.90;999.90;;;12.30;99.90;;;;;;4953273;29;20182;-74
2022/02/16 10:13:40;;;;;;;1999.90;999.90;;;12.30;99.90;;;;;;4954506;28;20559;-75
2022/02/16 10:16:07;;;;;;;1999.90;999.90;;;12.40;99.90;;;;;;4954070;28;20435;-74
2022/02/16 10:18:33;;;;;;;1999.90;999.90;;;12.40;99.90;;;;;;4953430;28;20444;-74
2022/02/16 10:21:06;;;;;;;1999.90;999.90;;;12.40;99.90;;;;;;4953592;28;20465;-74
2022/02/16 10:23:45;;;;;;;1999.90;999.90;;;12.50;99.90;;;;;;4953242;28;20406;-74
2022/02/16 10:26:12;;;;;;;1999.90;999.90;;;12.60;99.90;;;;;;4952349;28;20454;-75
2022/02/16 10:28:43;;;;;;;1999.90;999.90;;;12.70;99.90;;;;;;4952911;28;20407;-74
2022/02/16 10:31:10;;;;;;;1999.90;999.90;;;12.70;99.90;;;;;;4952856;29;20425;-74
2022/02/16 10:33:38;;;;;;;1999.90;999.90;;;12.80;99.90;;;;;;4951290;29;20418;-75
2022/02/16 10:36:11;;;;;;;1999.90;999.90;;;12.90;99.90;;;;;;4972017;23;20458;-74
2022/02/16 10:38:57;;;;;;;1999.90;999.90;;;12.90;99.90;;;;;;4992789;28;20489;-73
2022/02/16 10:41:30;;;;;;;1999.90;999.90;;;12.90;99.90;;;;;;4992243;28;20907;-75
2022/02/16 10:43:59;;;;;;;1999.90;999.90;;;12.90;99.90;;;;;;4992505;28;20408;-75
2022/02/16 10:46:27;;;;;;;1999.90;999.90;;;12.90;99.90;;;;;;4992273;28;20421;-75
2022/02/16 10:49:13;;;;;;;1999.90;999.90;;;12.80;99.90;;;;;;4992445;28;20763;-72
2022/02/16 10:51:41;;;;;;;1999.90;999.90;;;12.80;99.90;;;;;;4992567;28;20413;-72
2022/02/16 10:54:19;;;;;;;1999.90;999.90;;;12.80;99.90;;;;;;4992378;28;20444;-73
2022/02/16 10:56:49;;;;;;;1999.90;999.90;;;12.70;99.90;;;;;;4991941;28;20433;-74
2022/02/16 10:59:15;;;;;;;1999.90;999.90;;;12.80;99.90;;;;;;4992021;28;20788;-73
2022/02/16 11:01:44;;;;;;;1999.90;999.90;;;12.80;99.90;;;;;;4991820;28;20819;-73
2022/02/16 11:04:13;;;;;;;1999.90;999.90;;;12.80;99.90;;;;;;4991659;28;20785;-73
2022/02/16 11:06:44;;;;;;;1999.90;999.90;;;12.80;99.90;;;;;;4992192;28;20421;-74
2022/02/16 11:09:18;;;;;;;1999.90;999.90;;;12.90;99.90;;;;;;4992356;28;20765;-73
2022/02/16 11:11:46;;;;;;;1999.90;999.90;;;12.80;99.90;;;;;;4992149;28;20407;-73
2022/02/16 11:14:12;;;;;;;1999.90;999.90;;;13.00;99.90;;;;;;4992110;28;20832;-75
2022/02/16 11:16:38;;;;;;;1999.90;999.90;;;13.00;99.90;;;;;;4991888;28;20947;-76
2022/02/16 11:19:18;;;;;;;1999.90;999.90;;;13.10;99.90;;;;;;4991242;28;20413;-75
2022/02/16 11:22:21;;;;;;;1999.90;999.90;;;13.10;99.90;;;;;;4992201;28;20463;-73
2022/02/16 11:24:50;;;;;;;1999.90;999.90;;;13.20;99.90;;;;;;4992410;28;20427;-73
2022/02/16 11:27:26;;;;;;;1999.90;999.90;;;13.10;99.90;;;;;;4993220;28;20421;-74
2022/02/16 11:29:54;;;;;;;1999.90;999.90;;;13.10;99.90;;;;;;4992797;28;20961;-74
2022/02/16 11:32:22;;;;;;;1999.90;999.90;;;13.10;99.90;;;;;;4992393;28;20455;-73
2022/02/16 11:35:17;;;;;;;1999.90;999.90;;;13.10;99.90;;;;;;4994563;28;20400;-73
2022/02/16 11:37:49;;;;;;;1999.90;999.90;;;13.10;99.90;;;;;;4997201;28;20444;-73
2022/02/16 11:40:17;;;;;;;1999.90;999.90;;;13.20;99.90;;;;;;4996679;28;20471;-74
2022/02/16 11:42:48;;;;;;;1999.90;999.90;;;13.30;99.90;;;;;;4998120;28;20455;-73
2022/02/16 11:45:15;;;;;;;1999.90;999.90;;;13.30;99.90;;;;;;4996929;28;20493;-74
2022/02/16 11:47:41;;;;;;;1999.90;999.90;;;13.40;99.90;;;;;;4995055;28;20428;-73
2022/02/16 11:50:13;;;;;;;1999.90;999.90;;;13.40;99.90;;;;;;4995590;28;20426;-74
2022/02/16 11:52:43;;;;;;;1999.90;999.90;;;13.40;99.90;;;;;;4997170;28;20508;-72
2022/02/16 11:55:31;;;;;;;1999.90;999.90;;;13.30;99.90;;;;;;4995547;28;20405;-73
2022/02/16 11:58:16;;;;;;;1999.90;999.90;;;13.50;99.90;;;;;;4995752;28;20431;-73
2022/02/16 12:00:42;;;;;;;1999.90;999.90;;;13.50;99.90;;;;;;4995920;28;20494;-74
2022/02/16 12:03:09;;;;;;;1999.90;999.90;;;13.50;99.90;;;;;;4994388;28;20492;-73
2022/02/16 12:06:07;;;;;;;1999.90;999.90;;;13.60;99.90;;;;;;4994209;28;20672;-73